Upland, Nebraska
Current Conditions -  °F | °C
As of 12:15 AM on Thursday 23 Oct 2014 (Local Time) from KHDE Reporting Station
Moderate Fog Moderate Fog  
Wind Chill: 49°   Ceiling: 100
Heat Index: 49°   Visibility: 0mi
Dew Point: 48°   Wind: 0mph
Humidity: 96%   Direction: NA
Pressure: 30.06"   Gusts: NA
Location:  40.32°N, 98.9°W
Report Text: KHDE 230515Z AUTO 00000KT M1/4SM FG OVC001 10/09 A3006 RMK AO2 T00960090
Loading
Personal Weather Stations






























Interactive Weather Map
Tropical Storm Tracking
New forecast layout! Learn more

10-Day Weather Forecast

Advertisements
Track Severe Weather on mobile